Time;durP1;ratioP1;P1;durP2;ratioP2;P2;SDS_P1;SDS_P2;PMS_P1;PMS_P2;Temp;Humidity;BMP_temperature;BMP_pressure;BME280_temperature;BME280_humidity;BME280_pressure;Samples;Min_cycle;Max_cycle;Signal;HPM_P1;HPM_P2
2023/07/14 00:01:42;;;;;;;20.80;8.55;;;;;;;16.24;100.00;101667.38;5029108;28;20040;-73
2023/07/14 00:04:12;;;;;;;14.80;8.57;;;;;;;16.18;100.00;101669.88;5029031;28;20032;-73
2023/07/14 00:06:39;;;;;;;14.60;8.13;;;;;;;16.17;100.00;101679.00;5011201;28;20025;-73
2023/07/14 00:09:28;;;;;;;15.20;9.02;;;;;;;16.19;100.00;101663.47;5029533;28;20095;-73
2023/07/14 00:11:54;;;;;;;13.73;8.38;;;;;;;16.21;100.00;101680.22;5032983;28;20075;-73
2023/07/14 00:14:20;;;;;;;14.98;8.82;;;;;;;16.25;100.00;101675.25;5032824;28;20033;-73
2023/07/14 00:16:45;;;;;;;12.00;7.03;;;;;;;16.21;100.00;101665.94;5032843;28;20031;-73
2023/07/14 00:19:17;;;;;;;13.98;8.20;;;;;;;16.22;100.00;101670.28;5032785;28;20423;-73
2023/07/14 00:21:44;;;;;;;15.23;8.27;;;;;;;16.15;100.00;101662.22;5032687;28;20030;-73
2023/07/14 00:24:15;;;;;;;13.98;7.28;;;;;;;16.23;100.00;101668.41;5033006;28;20036;-73
2023/07/14 00:26:42;;;;;;;15.43;7.18;;;;;;;16.15;100.00;101659.53;5032635;28;20082;-73
2023/07/14 00:29:38;;;;;;;17.30;8.50;;;;;;;16.14;100.00;101665.97;5032583;28;20112;-72
2023/07/14 00:32:12;;;;;;;14.68;8.25;;;;;;;16.09;100.00;101665.78;5011953;28;20065;-73
2023/07/14 00:34:38;;;;;;;13.80;8.45;;;;;;;16.12;100.00;101669.91;5032241;28;20040;-73
2023/07/14 00:37:03;;;;;;;12.40;7.18;;;;;;;16.05;100.00;101667.25;5032205;28;20041;-73
2023/07/14 00:39:29;;;;;;;12.65;7.38;;;;;;;16.06;100.00;101668.06;5014706;28;20037;-73
2023/07/14 00:41:54;;;;;;;12.13;6.90;;;;;;;15.98;100.00;101667.28;5032302;28;20025;-72
2023/07/14 00:44:19;;;;;;;14.80;7.32;;;;;;;15.94;100.00;101657.16;5032222;28;20472;-73
2023/07/14 00:46:46;;;;;;;16.63;7.55;;;;;;;15.90;100.00;101661.28;5014358;28;20128;-73
2023/07/14 00:49:24;;;;;;;17.35;8.00;;;;;;;15.88;100.00;101663.38;5032153;28;20071;-73
2023/07/14 00:51:50;;;;;;;12.75;7.38;;;;;;;15.78;100.00;101650.38;5014130;28;20120;-73
2023/07/14 00:54:26;;;;;;;15.85;8.73;;;;;;;15.78;100.00;101656.56;5014348;28;20544;-73
2023/07/14 00:56:53;;;;;;;14.13;8.25;;;;;;;15.76;100.00;101655.13;5031980;28;20034;-73
2023/07/14 00:59:19;;;;;;;13.77;6.90;;;;;;;15.75;100.00;101653.50;5031926;28;20552;-73
2023/07/14 01:02:10;;;;;;;13.20;8.68;;;;;;;15.71;100.00;101654.94;5031960;28;20124;-73
2023/07/14 01:04:36;;;;;;;13.40;7.40;;;;;;;15.63;100.00;101647.88;5014098;28;20571;-73
2023/07/14 01:07:04;;;;;;;12.20;6.60;;;;;;;15.62;100.00;101642.75;5031628;28;20519;-73
2023/07/14 01:09:31;;;;;;;12.77;7.72;;;;;;;15.60;100.00;101642.94;5031791;28;20048;-73
2023/07/14 01:11:58;;;;;;;15.20;8.55;;;;;;;15.65;100.00;101643.13;5031986;28;20036;-73
2023/07/14 01:14:29;;;;;;;16.33;7.53;;;;;;;15.67;100.00;101642.94;5031817;28;20112;-73
2023/07/14 01:16:56;;;;;;;16.70;8.03;;;;;;;15.69;100.00;101647.09;5032024;28;20026;-73
2023/07/14 01:19:36;;;;;;;15.48;8.77;;;;;;;15.69;100.00;101644.41;5031669;28;20299;-73
2023/07/14 01:22:12;;;;;;;13.65;7.25;;;;;;;15.70;100.00;101637.16;5012532;28;20032;-73
2023/07/14 01:24:49;;;;;;;14.38;7.40;;;;;;;15.76;100.00;101641.69;5031583;28;20061;-73
2023/07/14 01:27:14;;;;;;;13.82;7.65;;;;;;;15.77;100.00;101640.63;5031468;28;20465;-73
2023/07/14 01:29:40;;;;;;;19.75;7.85;;;;;;;15.79;100.00;101635.88;5031602;28;20029;-72
2023/07/14 01:32:16;;;;;;;13.63;7.25;;;;;;;15.78;100.00;101635.06;5031436;28;20037;-73
2023/07/14 01:34:41;;;;;;;16.05;8.70;;;;;;;15.78;100.00;101634.22;5031433;28;20420;-73
2023/07/14 01:37:06;;;;;;;14.07;7.82;;;;;;;15.82;100.00;101632.75;5031209;28;20030;-72
2023/07/14 01:39:32;;;;;;;13.90;8.32;;;;;;;15.86;100.00;101625.09;5013500;28;20029;-73
2023/07/14 01:41:58;;;;;;;15.30;9.00;;;;;;;15.87;100.00;101630.25;5031207;28;20029;-72
2023/07/14 01:44:26;;;;;;;14.88;9.30;;;;;;;15.88;100.00;101631.09;5031574;28;20566;-73
2023/07/14 01:46:51;;;;;;;16.52;9.50;;;;;;;15.81;100.00;101617.66;5013277;28;20479;-73
2023/07/14 01:49:36;;;;;;;14.35;7.65;;;;;;;15.81;100.00;101628.44;5030910;28;20040;-72
2023/07/14 01:52:07;;;;;;;15.73;7.97;;;;;;;15.78;100.00;101629.69;5013504;28;20021;-72
2023/07/14 01:54:33;;;;;;;15.07;7.10;;;;;;;15.78;100.00;101632.38;5031093;28;20029;-73
2023/07/14 01:57:01;;;;;;;15.45;7.72;;;;;;;15.77;100.00;101624.50;5031077;28;20038;-72
2023/07/14 01:59:32;;;;;;;13.32;6.82;;;;;;;15.73;100.00;101621.41;5030869;28;20053;-73
2023/07/14 02:02:00;;;;;;;14.47;8.00;;;;;;;15.76;100.00;101628.25;5030956;28;20477;-72
2023/07/14 02:04:29;;;;;;;13.77;8.05;;;;;;;15.74;100.00;101620.38;5030832;28;20026;-73
2023/07/14 02:06:56;;;;;;;13.30;7.10;;;;;;;15.76;100.00;101618.28;5031102;28;20037;-72
2023/07/14 02:09:23;;;;;;;18.30;7.40;;;;;;;15.73;100.00;101629.47;5013110;28;20507;-73
2023/07/14 02:11:53;;;;;;;12.45;7.80;;;;;;;15.74;100.00;101630.31;5030580;28;20025;-72
2023/07/14 02:14:21;;;;;;;12.10;7.10;;;;;;;15.68;100.00;101615.81;5030453;28;20029;-72
2023/07/14 02:16:49;;;;;;;16.85;8.40;;;;;;;15.69;100.00;101617.50;5030596;28;20022;-73
2023/07/14 02:19:24;;;;;;;16.30;8.65;;;;;;;15.60;100.00;101596.41;5030171;28;20059;-73
2023/07/14 02:21:51;;;;;;;14.02;6.88;;;;;;;15.66;100.00;101615.19;5030580;28;20120;-73
2023/07/14 02:24:26;;;;;;;12.65;6.63;;;;;;;15.67;100.00;101603.41;5030400;28;20100;-73
2023/07/14 02:27:00;;;;;;;11.85;6.38;;;;;;;15.67;100.00;101611.47;5030347;28;20465;-72
2023/07/14 02:29:26;;;;;;;12.77;6.72;;;;;;;15.70;100.00;101607.56;5030739;28;20022;-72
2023/07/14 02:32:02;;;;;;;10.55;6.90;;;;;;;15.74;100.00;101609.59;5012580;28;20427;-73
2023/07/14 02:34:33;;;;;;;14.85;7.65;;;;;;;15.72;100.00;101608.19;5030426;28;20086;-73
2023/07/14 02:37:04;;;;;;;13.20;6.60;;;;;;;15.69;100.00;101609.44;5030410;28;20037;-72
2023/07/14 02:39:36;;;;;;;13.25;7.15;;;;;;;15.70;100.00;101610.28;5030075;28;20709;-72
2023/07/14 02:42:02;;;;;;;16.48;5.80;;;;;;;15.72;100.00;101602.81;5030177;28;20025;-72
2023/07/14 02:44:33;;;;;;;13.10;6.80;;;;;;;15.73;100.00;101609.84;5030046;28;20036;-72
2023/07/14 02:47:15;;;;;;;11.88;6.97;;;;;;;15.70;100.00;101613.78;5030185;28;20040;-72
2023/07/14 02:49:42;;;;;;;14.00;6.88;;;;;;;15.72;100.00;101616.25;5030001;28;20033;-73
2023/07/14 02:52:07;;;;;;;12.98;7.18;;;;;;;15.67;100.00;101611.47;5029828;28;20029;-72
2023/07/14 02:54:32;;;;;;;11.45;5.82;;;;;;;15.71;100.00;101612.72;5029875;28;20041;-73
2023/07/14 02:56:58;;;;;;;11.98;6.57;;;;;;;15.66;100.00;101607.13;5030120;28;20021;-72
2023/07/14 02:59:23;;;;;;;13.40;7.07;;;;;;;15.41;100.00;101566.69;5029477;28;20057;-73
2023/07/14 03:01:49;;;;;;;12.65;6.57;;;;;;;15.62;100.00;101607.78;4995649;28;20489;-73
2023/07/14 03:04:14;;;;;;;10.93;6.22;;;;;;;15.55;100.00;101595.16;5029473;28;20021;-72
2023/07/14 03:06:40;;;;;;;14.85;7.15;;;;;;;15.54;100.00;101603.47;5029700;28;20439;-73
2023/07/14 03:09:05;;;;;;;13.95;6.95;;;;;;;15.57;100.00;101605.72;5012120;28;20444;-73
2023/07/14 03:11:30;;;;;;;10.98;5.53;;;;;;;15.55;100.00;101605.09;5029439;28;20040;-73
2023/07/14 03:13:56;;;;;;;13.40;6.78;;;;;;;15.53;100.00;101601.78;5011919;28;20033;-72
2023/07/14 03:16:21;;;;;;;13.52;7.82;;;;;;;15.52;100.00;101597.47;5029497;28;20484;-72
2023/07/14 03:18:48;;;;;;;10.50;6.60;;;;;;;15.43;100.00;101586.13;5029596;28;20049;-72
2023/07/14 03:21:13;;;;;;;10.40;5.63;;;;;;;15.45;100.00;101585.88;5029378;28;20136;-72
2023/07/14 03:23:39;;;;;;;11.43;5.95;;;;;;;15.48;100.00;101594.38;5011898;28;20477;-72
2023/07/14 03:26:07;;;;;;;15.38;7.72;;;;;;;15.44;100.00;101579.69;5029549;28;20033;-73
2023/07/14 03:28:33;;;;;;;13.93;7.15;;;;;;;15.45;100.00;101586.72;5029579;28;20102;-72
2023/07/14 03:31:01;;;;;;;17.65;8.07;;;;;;;15.45;100.00;101591.25;5029250;28;20112;-72
2023/07/14 03:33:27;;;;;;;12.30;6.82;;;;;;;15.47;100.00;101584.63;5029257;28;20056;-72
2023/07/14 03:35:52;;;;;;;10.98;6.70;;;;;;;15.47;100.00;101583.81;5029336;28;20376;-72
2023/07/14 03:38:18;;;;;;;12.48;6.20;;;;;;;15.46;100.00;101583.00;5011317;28;20030;-72
2023/07/14 03:40:44;;;;;;;11.68;7.18;;;;;;;15.49;100.00;101589.81;5029341;28;20025;-72
2023/07/14 03:43:09;;;;;;;11.15;6.57;;;;;;;15.51;100.00;101583.19;5011674;28;20159;-72
2023/07/14 03:45:36;;;;;;;12.68;6.63;;;;;;;15.49;100.00;101576.38;5013939;28;20037;-72
2023/07/14 03:48:03;;;;;;;13.15;6.72;;;;;;;15.54;100.00;101573.88;5052360;28;20040;-72
2023/07/14 03:50:29;;;;;;;12.57;7.22;;;;;;;15.48;100.00;101566.66;5052428;28;20036;-72
2023/07/14 03:52:54;;;;;;;12.55;6.75;;;;;;;15.51;100.00;101574.28;5052180;28;20024;-73
2023/07/14 03:55:20;;;;;;;13.13;6.80;;;;;;;15.48;100.00;101570.19;5052256;28;20391;-72
2023/07/14 03:57:45;;;;;;;14.45;6.47;;;;;;;15.52;100.00;101567.88;5034266;28;20083;-72
2023/07/14 04:00:16;;;;;;;11.05;6.07;;;;;;;15.56;100.00;101577.16;5034017;28;20103;-72
2023/07/14 04:02:42;;;;;;;12.63;7.63;;;;;;;15.54;100.00;101571.19;5052085;28;20043;-72
2023/07/14 04:05:09;;;;;;;11.82;6.88;;;;;;;15.55;100.00;101575.53;5052075;28;20032;-73
2023/07/14 04:07:36;;;;;;;11.27;6.72;;;;;;;15.50;100.00;101560.03;5051937;28;20446;-73
2023/07/14 04:10:02;;;;;;;11.98;7.25;;;;;;;15.59;100.00;101575.91;5052123;28;20119;-72
2023/07/14 04:12:27;;;;;;;15.60;6.90;;;;;;;15.60;100.00;101578.41;5051941;28;20120;-72
2023/07/14 04:14:53;;;;;;;11.48;6.82;;;;;;;15.64;100.00;101568.03;5051862;28;20025;-72
2023/07/14 04:17:18;;;;;;;11.55;6.68;;;;;;;15.65;100.00;101572.41;5051663;28;20048;-72
2023/07/14 04:19:44;;;;;;;13.25;7.53;;;;;;;15.66;100.00;101565.97;5051746;28;20040;-72
2023/07/14 04:22:09;;;;;;;13.13;6.22;;;;;;;15.65;100.00;101573.22;5051744;28;20102;-72
2023/07/14 04:24:35;;;;;;;13.27;6.93;;;;;;;15.65;100.00;101565.16;5033788;28;20170;-72
2023/07/14 04:27:00;;;;;;;10.15;6.00;;;;;;;15.67;100.00;101564.94;5052110;28;20108;-72
2023/07/14 04:29:26;;;;;;;11.15;7.07;;;;;;;15.68;100.00;101559.34;5051751;28;20484;-72
2023/07/14 04:31:51;;;;;;;11.50;6.65;;;;;;;15.71;100.00;101563.50;5051390;28;20033;-72
2023/07/14 04:34:16;;;;;;;13.10;5.97;;;;;;;15.74;100.00;101553.13;5051600;28;20475;-72
2023/07/14 04:36:44;;;;;;;12.90;6.10;;;;;;;15.75;100.00;101554.78;5051429;28;20544;-72
2023/07/14 04:39:11;;;;;;;14.35;7.18;;;;;;;15.70;100.00;101560.00;5051598;28;20036;-72
2023/07/14 04:41:37;;;;;;;11.10;6.80;;;;;;;15.79;100.00;101560.56;5051260;28;20036;-72
2023/07/14 04:44:13;;;;;;;12.85;6.45;;;;;;;15.76;100.00;101563.69;5051290;28;20033;-72
2023/07/14 04:46:39;;;;;;;11.45;5.88;;;;;;;15.78;100.00;101565.13;5051312;28;20483;-72
2023/07/14 04:49:04;;;;;;;10.98;6.75;;;;;;;15.79;100.00;101565.94;5051225;28;20033;-72
2023/07/14 04:51:32;;;;;;;10.93;6.90;;;;;;;15.81;100.00;101557.66;5051277;28;20041;-72
2023/07/14 04:53:57;;;;;;;9.35;5.57;;;;;;;15.83;100.00;101558.28;5050993;28;20510;-72
2023/07/14 04:56:23;;;;;;;14.18;6.80;;;;;;;15.84;100.00;101566.13;5050818;28;20025;-72
2023/07/14 04:58:49;;;;;;;12.38;6.15;;;;;;;15.88;100.00;101561.16;5050207;28;20626;-72
2023/07/14 05:01:14;;;;;;;13.25;5.88;;;;;;;15.91;100.00;101566.94;5036978;28;20112;-72
2023/07/14 05:03:40;;;;;;;11.75;6.40;;;;;;;15.92;100.00;101565.06;5035970;28;20115;-72
2023/07/14 05:06:05;;;;;;;10.80;5.95;;;;;;;15.93;100.00;101561.34;5033277;28;20075;-72
2023/07/14 05:08:30;;;;;;;13.57;6.47;;;;;;;15.93;100.00;101561.34;5051209;28;20032;-72
2023/07/14 05:10:56;;;;;;;9.95;6.25;;;;;;;15.88;100.00;101555.78;5044576;28;20038;-72
2023/07/14 05:13:21;;;;;;;9.85;6.03;;;;;;;15.88;100.00;101564.66;5031968;28;20480;-72
2023/07/14 05:15:47;;;;;;;13.65;5.78;;;;;;;15.88;100.00;101553.91;5031894;28;20412;-72
2023/07/14 05:18:12;;;;;;;10.32;5.55;;;;;;;15.86;100.00;101563.25;5014212;28;20967;-72
2023/07/14 05:20:39;;;;;;;10.05;5.25;;;;;;;15.87;100.00;101562.19;5031614;28;20104;-72
2023/07/14 05:23:05;;;;;;;12.15;6.00;;;;;;;15.85;100.00;101553.50;5031790;28;20029;-72
2023/07/14 05:25:30;;;;;;;15.02;6.55;;;;;;;15.89;100.00;101550.16;5013959;28;20388;-73
2023/07/14 05:27:56;;;;;;;8.68;5.35;;;;;;;15.97;100.00;101552.59;5042471;28;20029;-72
2023/07/14 05:30:22;;;;;;;15.88;5.78;;;;;;;16.05;100.00;101554.22;5050701;28;20563;-72
2023/07/14 05:32:52;;;;;;;8.88;5.45;;;;;;;16.11;100.00;101558.75;5050628;28;20558;-72
2023/07/14 05:35:18;;;;;;;13.48;6.72;;;;;;;16.18;100.00;101558.72;5050474;28;20781;-72
2023/07/14 05:37:44;;;;;;;9.80;5.53;;;;;;;16.23;100.00;101558.06;5050679;28;20627;-72
2023/07/14 05:40:12;;;;;;;13.00;6.32;;;;;;;16.26;100.00;101549.56;5050849;28;20032;-72
2023/07/14 05:42:38;;;;;;;8.60;5.70;;;;;;;16.37;100.00;101557.78;5030918;28;20032;-72
2023/07/14 05:45:04;;;;;;;9.73;5.43;;;;;;;16.55;100.00;101558.88;5050171;28;20112;-72
2023/07/14 05:47:31;;;;;;;9.75;6.28;;;;;;;16.65;100.00;101565.41;5050191;28;20025;-72
2023/07/14 05:49:56;;;;;;;10.85;6.07;;;;;;;16.73;100.00;101558.09;5050280;28;20024;-72
2023/07/14 05:52:22;;;;;;;12.60;5.25;;;;;;;16.76;100.00;101554.97;5032384;28;20037;-72
2023/07/14 05:54:48;;;;;;;10.93;5.47;;;;;;;16.80;100.00;101554.34;5050228;28;20119;-73
2023/07/14 05:57:14;;;;;;;10.60;4.65;;;;;;;16.85;100.00;101553.69;5050352;28;20382;-72
2023/07/14 05:59:39;;;;;;;9.23;5.28;;;;;;;16.88;100.00;101549.72;5049859;28;20048;-72
2023/07/14 06:02:14;;;;;;;8.95;5.22;;;;;;;16.96;100.00;101549.44;5032112;28;20033;-73
2023/07/14 06:04:41;;;;;;;9.20;4.75;;;;;;;17.04;100.00;101551.84;5049862;28;20112;-72
2023/07/14 06:07:08;;;;;;;9.07;4.88;;;;;;;17.08;100.00;101559.28;5049168;28;20037;-72
2023/07/14 06:09:35;;;;;;;13.85;6.00;;;;;;;17.16;100.00;101565.41;5040533;28;20049;-72
2023/07/14 06:12:04;;;;;;;11.70;5.13;;;;;;;17.15;100.00;101561.06;5013007;28;20515;-72
2023/07/14 06:14:34;;;;;;;8.55;4.15;;;;;;;17.12;100.00;101570.44;5030633;28;20037;-72
2023/07/14 06:17:01;;;;;;;9.27;4.72;;;;;;;17.14;100.00;101565.66;5030621;28;20037;-73
2023/07/14 06:19:28;;;;;;;10.15;4.18;;;;;;;17.18;100.00;101561.44;5030714;28;20033;-72
2023/07/14 06:21:54;;;;;;;9.73;4.40;;;;;;;17.29;100.00;101565.25;5035359;28;20108;-73
2023/07/14 06:24:19;;;;;;;15.57;4.82;;;;;;;17.26;98.60;101563.03;5031887;28;20048;-72
2023/07/14 06:26:45;;;;;;;10.80;4.68;;;;;;;17.29;97.78;101567.97;5049493;28;20127;-72
2023/07/14 06:29:10;;;;;;;6.35;3.90;;;;;;;17.24;99.73;101570.53;5049420;28;20060;-73
2023/07/14 06:31:36;;;;;;;8.25;3.58;;;;;;;17.25;100.00;101566.78;5041990;28;20041;-73
2023/07/14 06:34:01;;;;;;;9.20;3.47;;;;;;;17.25;96.99;101566.78;5022746;28;20022;-72
2023/07/14 06:36:27;;;;;;;6.60;3.05;;;;;;;17.23;95.99;101564.28;5030023;28;20083;-72
2023/07/14 06:38:52;;;;;;;8.60;3.13;;;;;;;17.20;95.03;101561.22;5029445;28;20037;-72
2023/07/14 06:41:17;;;;;;;6.32;2.88;;;;;;;17.22;95.09;101554.56;5029992;28;20029;-72
2023/07/14 06:43:43;;;;;;;5.15;2.78;;;;;;;17.39;97.72;101562.06;5030222;28;20029;-72
2023/07/14 06:46:08;;;;;;;7.45;3.42;;;;;;;17.46;96.47;101563.63;5046879;28;20040;-72
2023/07/14 06:48:34;;;;;;;5.18;3.55;;;;;;;17.52;95.33;101568.13;5030082;28;20055;-73
2023/07/14 06:50:59;;;;;;;9.25;4.22;;;;;;;17.53;96.13;101561.69;5048926;28;20511;-72
2023/07/14 06:53:25;;;;;;;4.40;2.70;;;;;;;17.58;92.90;101561.03;5048344;28;20075;-73
2023/07/14 06:55:51;;;;;;;4.82;2.55;;;;;;;17.52;91.01;101557.31;5049038;28;20045;-73
2023/07/14 06:58:16;;;;;;;5.47;2.72;;;;;;;17.54;91.82;101557.13;5049068;28;20435;-72
2023/07/14 07:00:41;;;;;;;5.13;3.17;;;;;;;17.69;92.69;101552.16;5048202;28;20163;-72
2023/07/14 07:03:07;;;;;;;8.00;3.78;;;;;;;17.90;93.57;101553.56;5023676;28;20710;-72
2023/07/14 07:05:39;;;;;;;7.80;3.28;;;;;;;18.05;91.66;101555.03;5048082;28;20048;-72
2023/07/14 07:08:08;;;;;;;6.32;3.17;;;;;;;18.17;89.25;101555.91;5047444;28;20044;-72
2023/07/14 07:10:34;;;;;;;12.43;2.78;;;;;;;18.23;88.92;101548.75;5047668;28;20029;-73
2023/07/14 07:13:00;;;;;;;11.90;3.42;;;;;;;18.41;88.13;101545.97;5048023;28;20907;-72
2023/07/14 07:15:25;;;;;;;8.18;3.38;;;;;;;18.52;88.40;101531.69;5048087;28;20033;-71
2023/07/14 07:17:50;;;;;;;6.10;2.80;;;;;;;18.67;87.99;101533.91;5047813;28;20037;-72
2023/07/14 07:20:16;;;;;;;7.40;2.55;;;;;;;18.77;86.71;101531.50;5047899;28;20033;-72
2023/07/14 07:22:41;;;;;;;5.53;2.78;;;;;;;18.85;87.02;101533.03;5030143;28;20082;-72
2023/07/14 07:25:08;;;;;;;6.47;2.50;;;;;;;18.82;85.85;101523.50;5047794;28;20017;-72
2023/07/14 07:27:33;;;;;;;4.65;2.60;;;;;;;18.80;85.98;101520.22;5047814;28;20442;-72
2023/07/14 07:30:00;;;;;;;4.88;3.03;;;;;;;18.84;87.59;101531.38;5047912;28;20044;-72
2023/07/14 07:32:28;;;;;;;7.50;3.05;;;;;;;18.73;84.08;101527.59;5047607;28;20033;-72
2023/07/14 07:34:59;;;;;;;6.40;2.78;;;;;;;18.59;83.50;101532.38;5047885;28;20056;-73
2023/07/14 07:37:24;;;;;;;6.38;2.33;;;;;;;18.45;83.15;101522.06;5047546;28;20084;-72
2023/07/14 07:39:53;;;;;;;4.70;2.53;;;;;;;18.47;84.12;101526.16;5047863;28;20111;-73
2023/07/14 07:42:19;;;;;;;5.22;2.70;;;;;;;18.55;83.17;101525.81;5047740;28;20115;-72
2023/07/14 07:44:44;;;;;;;3.65;2.13;;;;;;;18.63;85.10;101519.25;5037988;28;20035;-73
2023/07/14 07:47:10;;;;;;;6.03;2.35;;;;;;;18.65;83.35;101527.09;5010776;28;20468;-74
2023/07/14 07:49:36;;;;;;;4.20;2.50;;;;;;;18.81;83.70;101515.63;5028878;28;20033;-71
2023/07/14 07:52:03;;;;;;;4.63;2.53;;;;;;;18.91;83.34;101506.94;5028552;28;20077;-76
2023/07/14 07:54:28;;;;;;;5.60;2.88;;;;;;;19.11;81.54;101509.28;5045695;28;20490;-70
2023/07/14 07:56:53;;;;;;;3.13;2.20;;;;;;;19.33;82.44;101507.56;5047210;28;20041;-68
2023/07/14 07:59:19;;;;;;;8.25;3.05;;;;;;;19.44;77.70;101505.88;5007796;28;1139070;-70
2023/07/14 08:01:48;;;;;;;4.32;1.98;;;;;;;19.54;77.83;101511.50;5038994;28;20030;-71
2023/07/14 08:04:14;;;;;;;6.85;2.33;;;;;;;19.47;78.20;101517.06;5029006;28;20630;-70
2023/07/14 08:06:39;;;;;;;8.15;2.72;;;;;;;19.41;78.31;101511.78;5029104;28;20469;-70
2023/07/14 08:09:06;;;;;;;4.32;2.20;;;;;;;19.36;78.87;101509.81;5035595;28;20033;-72
2023/07/14 08:11:33;;;;;;;4.43;2.80;;;;;;;19.41;78.29;101504.50;5034924;28;20041;-75
2023/07/14 08:14:01;;;;;;;6.03;2.47;;;;;;;19.51;78.37;101506.59;5028474;28;20033;-71
2023/07/14 08:16:27;;;;;;;5.45;2.72;;;;;;;19.50;78.32;101499.53;5028552;28;20029;-70
2023/07/14 08:18:52;;;;;;;6.03;2.75;;;;;;;19.49;76.94;101500.56;5029124;28;20044;-69
2023/07/14 08:21:18;;;;;;;6.85;2.90;;;;;;;19.64;79.81;101500.88;5028581;28;20489;-71
2023/07/14 08:23:44;;;;;;;7.53;2.63;;;;;;;19.93;78.45;101499.03;5042729;28;20761;-73
2023/07/14 08:26:10;;;;;;;4.22;2.58;;;;;;;20.25;78.24;101494.97;5048554;28;20033;-73
2023/07/14 08:28:36;;;;;;;5.97;1.95;;;;;;;20.15;75.10;101490.22;5047556;28;20400;-73
2023/07/14 08:31:04;;;;;;;6.18;3.03;;;;;;;20.05;75.33;101492.75;5049086;28;20163;-73
2023/07/14 08:33:30;;;;;;;7.55;2.83;;;;;;;20.06;77.84;101497.06;5051681;28;20032;-73
2023/07/14 08:36:00;;;;;;;7.47;2.92;;;;;;;20.06;76.45;101508.72;5035815;28;20472;-74
2023/07/14 08:38:27;;;;;;;4.32;2.22;;;;;;;19.95;74.78;101504.19;5032664;28;20116;-73
2023/07/14 08:41:05;;;;;;;5.80;2.40;;;;;;;19.90;75.02;101509.53;5032658;28;20094;-73
2023/07/14 08:43:54;;;;;;;4.30;2.05;;;;;;;19.86;77.51;101495.66;5032605;28;20033;-74
2023/07/14 08:46:43;;;;;;;7.53;3.15;;;;;;;19.87;76.84;101500.00;5038020;28;20472;-73
2023/07/14 08:49:22;;;;;;;7.38;2.63;;;;;;;19.75;77.38;101501.13;5051029;28;20025;-73
2023/07/14 08:51:54;;;;;;;5.45;2.45;;;;;;;19.74;78.21;101505.72;5042375;28;20032;-74
2023/07/14 08:54:22;;;;;;;;;;;;;;;19.85;78.74;101498.59;5051657;28;20082;-73
2023/07/14 08:56:49;;;;;;;6.53;3.42;;;;;;;19.78;75.39;101500.63;5051361;28;19909;-73
2023/07/14 08:59:39;;;;;;;5.15;2.30;;;;;;;19.86;76.66;101492.13;5050887;28;20053;-73
2023/07/14 09:02:21;;;;;;;5.28;2.40;;;;;;;20.00;76.29;101492.66;5051331;28;20025;-74
2023/07/14 09:04:58;;;;;;;3.40;2.10;;;;;;;20.17;76.20;101484.53;5033331;28;20108;-74
2023/07/14 09:07:24;;;;;;;4.35;2.05;;;;;;;20.84;72.88;101479.09;5050953;28;20037;-73
2023/07/14 09:09:49;;;;;;;4.07;2.28;;;;;;;21.30;69.53;101482.44;5051262;28;20094;-74
2023/07/14 09:12:43;;;;;;;5.45;2.72;;;;;;;21.60;69.93;101479.25;5032932;28;20041;-74
2023/07/14 09:15:11;;;;;;;6.90;2.88;;;;;;;21.64;69.38;101484.97;5051206;28;20029;-73
2023/07/14 09:18:02;;;;;;;4.53;2.17;;;;;;;21.73;68.55;101483.47;5051152;28;20043;-73
2023/07/14 09:20:58;;;;;;;4.43;2.70;;;;;;;21.86;67.99;101483.06;5050273;28;20044;-73
2023/07/14 09:23:35;;;;;;;7.90;2.72;;;;;;;21.86;66.48;101477.63;5050966;28;20518;-73
2023/07/14 09:26:29;;;;;;;4.68;2.17;;;;;;;22.00;69.42;101477.19;5050948;28;20036;-73
2023/07/14 09:28:56;;;;;;;7.45;2.58;;;;;;;21.92;66.75;101480.38;5050582;28;20071;-74
2023/07/14 09:31:28;;;;;;;3.92;3.33;;;;;;;22.04;67.66;101479.16;5050718;28;20071;-73
2023/07/14 09:34:01;;;;;;;4.47;2.28;;;;;;;22.09;65.58;101476.47;5050496;28;20033;-74
2023/07/14 09:36:28;;;;;;;6.05;2.42;;;;;;;22.20;67.82;101465.72;5050352;28;20578;-73
2023/07/14 09:39:04;;;;;;;6.95;2.33;;;;;;;22.37;66.45;101465.56;5032482;28;20044;-73
2023/07/14 09:41:31;;;;;;;9.23;2.97;;;;;;;22.41;66.41;101466.72;5050089;28;20040;-73
2023/07/14 09:43:58;;;;;;;6.45;2.63;;;;;;;22.42;67.03;101462.91;5031264;28;20476;-73
2023/07/14 09:46:26;;;;;;;4.30;2.85;;;;;;;22.38;66.51;101454.44;5032544;28;20484;-73
2023/07/14 09:49:01;;;;;;;7.47;2.80;;;;;;;22.42;66.23;101443.88;5050336;28;20476;-74
2023/07/14 09:51:26;;;;;;;3.20;1.98;;;;;;;22.50;66.74;101441.47;5050154;28;20479;-73
2023/07/14 09:54:00;;;;;;;4.45;2.97;;;;;;;22.59;65.88;101441.81;5050175;28;20083;-73
2023/07/14 09:56:31;;;;;;;6.22;2.30;;;;;;;22.69;64.78;101435.63;5050459;28;21023;-73
2023/07/14 09:59:19;;;;;;;4.88;2.92;;;;;;;22.87;66.72;101429.75;5050033;28;20032;-74
2023/07/14 10:01:57;;;;;;;6.05;2.58;;;;;;;22.86;64.63;101430.00;5030841;28;20037;-74
2023/07/14 10:04:31;;;;;;;7.25;2.15;;;;;;;22.92;64.88;101432.47;5031167;28;20685;-73
2023/07/14 10:07:22;;;;;;;7.47;3.42;;;;;;;22.98;64.35;101427.91;5030829;28;20038;-73
2023/07/14 10:10:09;;;;;;;4.55;2.00;;;;;;;23.08;65.05;101427.09;5000049;28;20041;-73
2023/07/14 10:12:49;;;;;;;5.45;2.15;;;;;;;23.13;62.47;101419.81;5034727;28;20036;-73
2023/07/14 10:15:31;;;;;;;3.05;2.17;;;;;;;23.22;63.95;101411.13;5049852;28;20060;-74
2023/07/14 10:18:03;;;;;;;5.65;2.40;;;;;;;23.25;63.32;101405.94;5031770;28;20369;-73
2023/07/14 10:20:31;;;;;;;5.28;2.50;;;;;;;23.35;64.17;101400.53;5049701;28;20986;-74
2023/07/14 10:22:58;;;;;;;5.68;2.90;;;;;;;23.26;62.22;101406.75;5049658;28;20067;-73
2023/07/14 10:25:26;;;;;;;7.18;2.55;;;;;;;23.18;63.58;101405.38;5048924;28;20029;-74
2023/07/14 10:27:59;;;;;;;4.18;2.10;;;;;;;23.09;61.84;101402.38;5030603;28;20041;-74
2023/07/14 10:30:41;;;;;;;7.47;2.47;;;;;;;22.89;62.89;101384.03;5012945;28;20029;-74
2023/07/14 10:33:33;;;;;;;4.43;2.00;;;;;;;22.74;63.45;101386.66;5049593;28;20110;-74
2023/07/14 10:36:13;;;;;;;5.90;2.10;;;;;;;22.64;64.20;101381.22;5048803;28;20048;-74
2023/07/14 10:39:06;;;;;;;3.90;1.98;;;;;;;22.56;64.84;101368.09;5049472;28;20064;-73
2023/07/14 10:41:33;;;;;;;4.88;3.05;;;;;;;22.64;66.08;101368.44;5049447;28;20036;-73
2023/07/14 10:44:12;;;;;;;4.97;2.63;;;;;;;22.95;63.45;101368.53;5049464;28;20033;-74
2023/07/14 10:46:43;;;;;;;5.80;2.60;;;;;;;23.30;64.07;101359.69;5029281;28;20106;-73
2023/07/14 10:49:14;;;;;;;4.50;1.98;;;;;;;23.35;61.82;101370.59;5029786;28;20021;-73
2023/07/14 10:51:41;;;;;;;4.75;2.38;;;;;;;23.30;62.38;101358.88;5032494;28;20032;-68
2023/07/14 10:54:16;;;;;;;3.05;2.13;;;;;;;23.15;62.53;101359.66;5033895;28;20021;-69
2023/07/14 10:57:10;;;;;;;8.23;2.47;;;;;;;23.09;63.81;101356.09;5012162;28;20021;-69
2023/07/14 10:59:50;;;;;;;6.80;2.78;;;;;;;22.84;61.39;101356.00;5019863;28;20083;-68
2023/07/14 11:02:23;;;;;;;8.05;3.17;;;;;;;22.75;62.99;101347.53;5029469;28;20536;-70
2023/07/14 11:04:59;;;;;;;4.45;2.65;;;;;;;22.80;63.94;101347.56;5029509;28;20049;-69
2023/07/14 11:07:31;;;;;;;9.43;2.70;;;;;;;22.77;63.27;101348.09;5029265;28;20041;-71
2023/07/14 11:09:58;;;;;;;7.78;2.90;;;;;;;22.74;64.24;101340.44;5029653;28;20035;-73
2023/07/14 11:12:53;;;;;;;4.20;2.40;;;;;;;22.87;65.49;101339.97;5011574;28;20068;-73
2023/07/14 11:15:26;;;;;;;5.75;2.45;;;;;;;22.82;65.40;101336.38;5029467;28;20029;-73
2023/07/14 11:17:59;;;;;;;4.75;2.60;;;;;;;22.74;61.71;101348.59;5029757;28;20025;-73
2023/07/14 11:20:39;;;;;;;3.70;2.03;;;;;;;22.68;63.47;101355.13;5029687;28;20559;-73
2023/07/14 11:23:23;;;;;;;5.60;2.30;;;;;;;22.62;64.27;101329.81;5029967;28;20436;-73
2023/07/14 11:26:01;;;;;;;4.80;2.30;;;;;;;22.68;64.08;101320.56;5029487;28;20468;-73
2023/07/14 11:28:30;;;;;;;3.20;1.73;;;;;;;22.81;64.39;101319.25;5029599;28;20116;-72